メインページ
METAR-TAF:

METAR-TAF

空港 :

オールバニ, ニューヨーク, アメリカ合衆国

緯度: 42-44-53N, 経度: 073-48-06W, 海抜: 87m

現時点の気象観測

当レポートは17分前の15:51(UTC)に作成
無風
気温 -9°C
湿度 48%
気圧 1031 hPa
視程: 16.1km
高度8500ftの曇り

METAR: KALB 181551Z 00000KT 10SM OVC085 M09/M18 A3045 RMK AO2 SLP317 T10941178

時間: 11:08 (16:08 UTC)

予報

当レポートは4時間42分前の11:26(UTC)に作成
予報は18日の 12時(UTC)から 19日の 12時(UTC)まで有効
の風 kt
視程: 10km
高度12000ftの雲は散在している
高度25000ftの曇り
18日の 1500時(UTC)から
北東の風 3kt
視程: 10km
高度10000ftの曇り
18日の 1900時(UTC)から
南/南東の風 5kt
視程: 3.2km
高度2000ftの曇り
小雪, 靄
18日の 2100時(UTC)から
南/南東の風 7kt
視程: 1.2km
高度800ftの
小雪, 靄
19日の 0300時(UTC)から
の風 7kt
視程: 4.8km
高度1200ftの曇り
靄, 近辺でにわか雨

TAF: KALB 181126Z 1812/1912 00000KT P6SM SCT120 OVC250 FM181500 04003KT P6SM OVC100 FM181900 15005KT 2SM -SN BR OVC020 FM182100 16007KT 3/4SM -SN BR VV008 FM190300 17007KT 3SM BR VCSH OVC012

4,000以上の空港の気象観測と天気予報(METAR報とTAF報)

利用可能な観測所は地図上に黄色い丸と赤い丸で示す。

丸の上にカーソルを重ねると観測所名を参照できる。

次にクリックすると気象観測と天気予報を参照できる。

マップの切り替え:黒色「×」印の緑ボタンをクリックして拡大、「-」印の緑ボタンをクリックして縮小、緑色の三角印をクリックして隣りの地図に切り替え


METAR-TAF: